Orlando, FL

8:13 PM EDT on August 04, 2015 (GMT -0400)
Orlando International | | Change Station
CLOSE
Current Station
Airport
Location: Orlando International,
Elevation: 105 ft
Nearby Weather Stations

Elev 105 ft 28.43 °N, 81.31 °W | Updated 20 minutes ago

Mostly Cloudy
Mostly Cloudy
82 °F
Feels Like 89 °F
N
5
Wind Variable Wind from SSE

Today
High -- | Low -- °F
--% Chance of Precip.
Yesterday
High -- | Low -- °F
Precip. -- in
6:48 AM 8:13 PM
Waning Gibbous, 73% visible
Pressure 30.05 in
Visibility 10.0 miles
Clouds Few 20000 ft
Mostly Cloudy 26000 ft
Heat Index 89 °F
Dew Point 76 °F
Humidity 82%
Rainfall 0.44 in
Snow Depth Not available.
UV 0 out of 12
Pollen 3.90 out of 12
Air Quality Not available.
Flu Activity Not available.
METAR KMCO 042353Z 15004KT 10SM FEW200 BKN260 28/24 A3005 RMK AO2 SLP174 60044 T02780244 10328 20244 55004 $

More Conditions Fewer Conditions

Pressure 30.05 in
Visibility 10.0 miles
Clouds Few 20000 ft
Mostly Cloudy 26000 ft
Heat Index 89 °F
Dew Point 76 °F
Humidity 82%
Rainfall 0.44 in
Snow Depth Not available.
UV 0 out of 12
Pollen 3.90 out of 12
Air Quality Not available.
Flu Activity Not available.
METAR KMCO 042353Z 15004KT 10SM FEW200 BKN260 28/24 A3005 RMK AO2 SLP174 60044 T02780244 10328 20244 55004 $

More Conditions Fewer Conditions

Nowcast | as of 5:45 PM EDT on August 4, 2015

Through sunset...showers and storms will be somewhat decreased in number and isolated in coverage. Over east central Florida...a few will occur along Interstate 95 and the Florida Turnpike near Indiantown and Port Saint Lucie...as well as a few near Blue Cypress Lake to near Titusville. One or two gusts to 40 mph are still possible with any stronger storms that may develop. Additional details...including graphics are available online at: http://www.Srh.NOAA.Gov/mlb/blog.Php

×

10-Day Weather Forecast

×

Almanac

Astronomy

Aug. 04, 2015 Rise Set
Actual Time
Civil Twilight
Nautical Twilight
Astronomical Twilight
Moon
Length of Visible Light
Length of Day
Tomorrow will be .
, % of the Moon is Illuminated

Today's Extremes

State Highs State Lows

Community

WunderPhotos

Upload Photos

1,844,034 photos uploaded!

WunderBlogs® & News

Nearby

Air Quality

  Air Quality AQ Index Pollutant
Not available.

Snow Depth

Station Depth Elevation

Earthquake Activity

City Distance Mag. Time & Date
Minimum magnitude displayed is 2.5.

Coastal Water Temperatures

Place Temperature

Stations

Nearby Weather Stations

Station Location Temp. Windchill Dew Point Humidity Wind Precip. Elev Updated Type